createdAt,value
2022-12-25T00:01:23.233Z,7.59
2022-12-25T00:03:50.616Z,7.31
2022-12-25T00:06:18.186Z,7.92
2022-12-25T00:08:45.083Z,8.23
2022-12-25T00:11:14.638Z,8.09
2022-12-25T00:13:41.816Z,7.04
2022-12-25T00:16:17.390Z,7.90
2022-12-25T00:18:44.333Z,6.55
2022-12-25T00:21:11.406Z,7.07
2022-12-25T00:23:38.795Z,8.15
2022-12-25T00:26:15.027Z,7.42
2022-12-25T00:28:41.862Z,8.12
2022-12-25T00:31:11.309Z,8.13
2022-12-25T00:33:39.948Z,8.08
2022-12-25T00:36:08.051Z,8.03
2022-12-25T00:38:36.050Z,6.63
2022-12-25T00:41:11.618Z,7.02
2022-12-25T00:43:41.996Z,7.93
2022-12-25T00:46:11.624Z,6.99
2022-12-25T00:48:38.538Z,7.80
2022-12-25T00:51:07.835Z,7.79
2022-12-25T00:53:34.502Z,7.29
2022-12-25T00:56:04.859Z,7.75
2022-12-25T00:58:33.845Z,7.12
2022-12-25T01:01:02.724Z,7.68
2022-12-25T01:03:29.845Z,6.64
2022-12-25T01:06:03.066Z,7.34
2022-12-25T01:08:33.576Z,7.50
2022-12-25T01:11:08.707Z,6.75
2022-12-25T01:13:37.176Z,7.58
2022-12-25T01:16:10.642Z,7.58
2022-12-25T01:18:38.508Z,7.59
2022-12-25T01:21:13.120Z,7.53
2022-12-25T01:23:39.672Z,7.48
2022-12-25T01:26:07.448Z,7.47
2022-12-25T01:28:34.246Z,7.12
2022-12-25T01:31:01.036Z,7.43
2022-12-25T01:33:27.637Z,7.07
2022-12-25T01:35:54.341Z,7.09
2022-12-25T01:38:21.645Z,7.45
2022-12-25T01:40:48.244Z,7.06
2022-12-25T01:43:20.886Z,7.42
2022-12-25T01:45:49.339Z,7.44
2022-12-25T01:48:19.905Z,7.46
2022-12-25T01:50:53.083Z,5.95
2022-12-25T01:53:20.251Z,7.04
2022-12-25T01:55:51.001Z,7.49
2022-12-25T01:58:18.345Z,7.47
2022-12-25T02:00:45.471Z,7.02
2022-12-25T02:03:12.112Z,6.83
2022-12-25T02:05:38.770Z,6.77
2022-12-25T02:08:11.091Z,6.72
2022-12-25T02:10:39.283Z,7.46
2022-12-25T02:13:07.665Z,6.22
2022-12-25T02:15:52.822Z,7.30
2022-12-25T02:18:29.621Z,6.61
2022-12-25T02:21:22.602Z,7.45
2022-12-25T02:24:31.976Z,7.45
2022-12-25T02:27:04.386Z,6.33
2022-12-25T02:29:36.804Z,7.39
2022-12-25T02:32:28.149Z,7.35
2022-12-25T02:35:12.804Z,7.30
2022-12-25T02:37:45.717Z,7.29
2022-12-25T02:40:36.203Z,7.11
2022-12-25T02:43:25.510Z,6.49
2022-12-25T02:46:16.538Z,6.76
2022-12-25T02:49:10.898Z,7.20
2022-12-25T02:52:02.714Z,6.46
2022-12-25T02:54:53.301Z,6.65
2022-12-25T02:57:43.875Z,7.00
2022-12-25T03:00:30.582Z,5.68
2022-12-25T03:03:18.031Z,6.08
2022-12-25T03:06:04.336Z,6.79
2022-12-25T03:08:40.148Z,5.45
2022-12-25T03:11:29.823Z,6.85
2022-12-25T03:14:20.499Z,6.79
2022-12-25T03:16:53.709Z,6.76
2022-12-25T03:19:44.613Z,6.68
2022-12-25T03:22:34.113Z,5.79
2022-12-25T03:25:19.773Z,5.84
2022-12-25T03:27:49.186Z,6.66
2022-12-25T03:30:34.527Z,6.63
2022-12-25T03:33:36.738Z,6.60
2022-12-25T03:36:40.953Z,6.44
2022-12-25T03:39:38.932Z,5.54
2022-12-25T03:42:25.724Z,6.44
2022-12-25T03:45:21.437Z,6.37
2022-12-25T03:48:10.306Z,5.96
2022-12-25T03:51:04.378Z,6.32
2022-12-25T03:53:58.982Z,6.31
2022-12-25T03:56:45.154Z,6.35
2022-12-25T03:59:30.682Z,6.38
2022-12-25T04:02:16.131Z,6.35
2022-12-25T04:05:01.388Z,6.16
2022-12-25T04:07:47.210Z,6.28
2022-12-25T04:10:32.653Z,6.35
2022-12-25T04:13:17.619Z,6.26
2022-12-25T04:16:02.952Z,6.34
2022-12-25T04:18:48.155Z,6.07
2022-12-25T04:21:33.533Z,6.27
2022-12-25T04:24:18.403Z,6.00
2022-12-25T04:27:03.446Z,5.11
2022-12-25T04:29:48.511Z,6.28
2022-12-25T04:32:33.600Z,6.25
2022-12-25T04:35:18.726Z,5.71
2022-12-25T04:37:45.554Z,5.52
2022-12-25T04:40:12.252Z,6.08
2022-12-25T04:42:38.900Z,6.21
2022-12-25T04:45:06.387Z,6.03
2022-12-25T04:47:33.317Z,6.29
2022-12-25T04:49:59.916Z,6.33
2022-12-25T04:52:26.670Z,5.94
2022-12-25T04:54:53.305Z,5.96
2022-12-25T04:57:19.815Z,6.34
2022-12-25T04:59:46.351Z,6.35
2022-12-25T05:02:13.131Z,6.39
2022-12-25T05:04:39.800Z,6.37
2022-12-25T05:07:06.371Z,6.41
2022-12-25T05:09:32.903Z,6.42
2022-12-25T05:11:59.526Z,6.43
2022-12-25T05:14:26.139Z,6.06
2022-12-25T05:16:53.049Z,6.34
2022-12-25T05:19:19.687Z,6.38
2022-12-25T05:21:46.264Z,6.54
2022-12-25T05:24:12.876Z,6.55
2022-12-25T05:26:39.572Z,5.41
2022-12-25T05:29:06.205Z,5.79
2022-12-25T05:31:35.716Z,6.45
2022-12-25T05:34:02.323Z,6.48
2022-12-25T05:36:29.068Z,6.66
2022-12-25T05:38:55.613Z,6.70
2022-12-25T05:41:22.319Z,6.71
2022-12-25T05:43:48.878Z,6.61
2022-12-25T05:46:15.954Z,6.77
2022-12-25T05:48:42.559Z,6.81
2022-12-25T05:51:14.046Z,6.77
2022-12-25T05:53:42.364Z,6.76
2022-12-25T05:56:09.549Z,6.73
2022-12-25T05:58:38.669Z,6.77
2022-12-25T06:01:12.111Z,6.76
2022-12-25T06:03:39.016Z,5.36
2022-12-25T06:06:07.170Z,6.76
2022-12-25T06:08:34.419Z,6.75
2022-12-25T06:11:06.264Z,6.75
2022-12-25T06:13:33.895Z,6.72
2022-12-25T06:16:04.507Z,6.70
2022-12-25T06:18:31.138Z,6.66
2022-12-25T06:20:57.695Z,6.41
2022-12-25T06:23:24.440Z,6.66
2022-12-25T06:25:51.055Z,6.65
2022-12-25T06:28:17.690Z,6.64
2022-12-25T06:30:44.248Z,6.39
2022-12-25T06:33:11.898Z,5.67
2022-12-25T06:35:40.193Z,6.59
2022-12-25T06:38:06.765Z,6.54
2022-12-25T06:40:34.793Z,6.65
2022-12-25T06:43:01.346Z,6.67
2022-12-25T06:45:27.945Z,6.65
2022-12-25T06:47:54.527Z,6.61
2022-12-25T06:50:21.125Z,6.60
2022-12-25T06:52:47.699Z,5.75
2022-12-25T06:55:14.308Z,5.80
2022-12-25T06:57:40.877Z,6.63
2022-12-25T07:00:08.170Z,6.20
2022-12-25T07:02:35.295Z,5.39
2022-12-25T07:05:03.992Z,6.57
2022-12-25T07:07:30.600Z,5.76
2022-12-25T07:09:57.186Z,6.58
2022-12-25T07:12:24.252Z,5.64
2022-12-25T07:14:54.634Z,5.78
2022-12-25T07:17:22.236Z,6.60
2022-12-25T07:19:49.295Z,5.53
2022-12-25T07:22:16.724Z,6.49
2022-12-25T07:24:43.317Z,6.57
2022-12-25T07:27:10.258Z,6.03
2022-12-25T07:29:36.826Z,5.67
2022-12-25T07:32:03.703Z,6.09
2022-12-25T07:34:30.358Z,5.44
2022-12-25T07:36:57.007Z,6.56
2022-12-25T07:39:23.710Z,6.56
2022-12-25T07:41:51.239Z,6.25
2022-12-25T07:44:18.167Z,5.96
2022-12-25T07:46:45.022Z,6.59
2022-12-25T07:49:12.232Z,6.63
2022-12-25T07:51:38.867Z,6.66
2022-12-25T07:54:05.503Z,6.67
2022-12-25T07:56:32.991Z,6.49
2022-12-25T07:58:59.624Z,6.68
2022-12-25T08:01:27.739Z,5.64
2022-12-25T08:03:57.085Z,6.77
2022-12-25T08:06:29.494Z,6.82
2022-12-25T08:08:56.594Z,6.86
2022-12-25T08:11:23.541Z,6.22
2022-12-25T08:13:50.135Z,6.94
2022-12-25T08:16:16.787Z,4.08
2022-12-25T08:18:43.669Z,7.03
2022-12-25T08:21:13.285Z,6.94
2022-12-25T08:23:42.364Z,7.13
2022-12-25T08:26:13.182Z,7.17
2022-12-25T08:28:40.026Z,6.88
2022-12-25T08:31:14.845Z,7.32
2022-12-25T08:33:42.118Z,7.36
2022-12-25T08:36:10.345Z,7.40
2022-12-25T08:38:37.295Z,7.43
2022-12-25T08:41:04.133Z,6.93
2022-12-25T08:43:30.921Z,7.52
2022-12-25T08:45:57.578Z,7.56
2022-12-25T08:48:24.183Z,7.56
2022-12-25T08:50:52.375Z,7.61
2022-12-25T08:53:19.749Z,7.70
2022-12-25T08:55:46.512Z,7.76
2022-12-25T08:58:14.556Z,7.67
2022-12-25T09:00:41.187Z,7.84
2022-12-25T09:03:07.856Z,7.76
2022-12-25T09:05:35.790Z,7.16
2022-12-25T09:08:02.514Z,7.94
2022-12-25T09:10:29.228Z,7.45
2022-12-25T09:12:55.941Z,7.19
2022-12-25T09:15:22.709Z,8.18
2022-12-25T09:17:49.295Z,8.09
2022-12-25T09:20:15.859Z,8.33
2022-12-25T09:22:42.534Z,8.43
2022-12-25T09:25:09.838Z,8.07
2022-12-25T09:27:36.460Z,8.61
2022-12-25T09:30:04.085Z,8.51
2022-12-25T09:32:30.725Z,8.25
2022-12-25T09:34:57.386Z,8.25
2022-12-25T09:37:24.268Z,8.81
2022-12-25T09:39:50.973Z,7.78
2022-12-25T09:42:22.489Z,8.95
2022-12-25T09:44:54.888Z,9.01
2022-12-25T09:47:31.213Z,8.71
2022-12-25T09:50:11.331Z,9.10
2022-12-25T09:52:46.579Z,9.17
2022-12-25T09:55:20.996Z,8.48
2022-12-25T09:58:00.480Z,9.21
2022-12-25T10:00:42.661Z,9.26
2022-12-25T10:03:51.679Z,9.33
2022-12-25T10:07:01.681Z,9.33
2022-12-25T10:09:51.672Z,9.26
2022-12-25T10:12:49.228Z,9.45
2022-12-25T10:15:25.713Z,8.06
2022-12-25T10:18:10.528Z,9.57
2022-12-25T10:20:50.410Z,8.95
2022-12-25T10:23:29.046Z,9.39
2022-12-25T10:25:55.894Z,9.68
2022-12-25T10:28:36.029Z,9.62
2022-12-25T10:31:17.443Z,8.94
2022-12-25T10:33:44.158Z,9.77
2022-12-25T10:36:10.754Z,9.16
2022-12-25T10:38:37.308Z,9.82
2022-12-25T10:41:12.996Z,9.84
2022-12-25T10:43:48.936Z,9.82
2022-12-25T10:46:16.890Z,9.88
2022-12-25T10:49:05.408Z,9.18
2022-12-25T10:51:36.721Z,10.03
2022-12-25T10:54:04.797Z,10.21
2022-12-25T10:56:31.395Z,9.90
2022-12-25T10:59:10.566Z,10.34
2022-12-25T11:01:37.451Z,10.31
2022-12-25T11:04:04.336Z,10.59
2022-12-25T11:06:32.599Z,10.67
2022-12-25T11:09:02.558Z,10.72
2022-12-25T11:11:30.355Z,10.77
2022-12-25T11:14:02.689Z,10.79
2022-12-25T11:16:30.898Z,10.98
2022-12-25T11:18:59.018Z,11.17
2022-12-25T11:21:29.565Z,11.27
2022-12-25T11:24:02.013Z,11.24
2022-12-25T11:26:31.248Z,11.34
2022-12-25T11:28:58.471Z,11.10
2022-12-25T11:31:40.577Z,10.96
2022-12-25T11:34:27.071Z,11.37
2022-12-25T11:36:54.008Z,11.29
2022-12-25T11:39:36.200Z,11.31
2022-12-25T11:42:14.474Z,11.30
2022-12-25T11:44:49.483Z,10.30
2022-12-25T11:47:37.624Z,11.21
2022-12-25T11:50:07.535Z,11.17
2022-12-25T11:52:38.733Z,11.19
2022-12-25T11:55:21.712Z,11.21
2022-12-25T11:57:54.510Z,11.17
2022-12-25T12:00:21.490Z,11.22
2022-12-25T12:02:58.804Z,11.20
2022-12-25T12:05:47.985Z,11.19
2022-12-25T12:08:15.509Z,10.29
2022-12-25T12:11:32.596Z,11.26
2022-12-25T12:14:20.252Z,11.23
2022-12-25T12:16:47.125Z,9.96
2022-12-25T12:19:26.106Z,11.00
2022-12-25T12:21:56.258Z,11.10
2022-12-25T12:24:24.949Z,11.01
2022-12-25T12:27:05.106Z,10.94
2022-12-25T12:29:41.023Z,10.88
2022-12-25T12:32:20.402Z,10.42
2022-12-25T12:34:50.511Z,10.48
2022-12-25T12:37:35.288Z,10.36
2022-12-25T12:40:03.323Z,11.09
2022-12-25T12:42:32.937Z,11.04
2022-12-25T12:45:18.011Z,11.02
2022-12-25T12:47:50.316Z,10.96
2022-12-25T12:50:40.946Z,10.95
2022-12-25T12:53:21.635Z,10.91
2022-12-25T12:55:48.324Z,10.96
2022-12-25T12:58:35.466Z,11.08
2022-12-25T13:01:26.563Z,11.18
2022-12-25T13:04:28.667Z,11.32
2022-12-25T13:07:13.747Z,11.43
2022-12-25T13:09:51.274Z,11.57
2022-12-25T13:12:19.302Z,11.19
2022-12-25T13:14:47.989Z,11.61
2022-12-25T13:17:22.061Z,11.29
2022-12-25T13:20:02.412Z,10.75
2022-12-25T13:22:34.762Z,11.43
2022-12-25T13:25:05.067Z,11.45
2022-12-25T13:27:33.401Z,11.43
2022-12-25T13:30:00.260Z,11.34
2022-12-25T13:32:30.678Z,11.28
2022-12-25T13:34:58.988Z,10.49
2022-12-25T13:37:31.076Z,11.33
2022-12-25T13:40:00.331Z,10.91
2022-12-25T13:42:30.051Z,10.37
2022-12-25T13:45:06.029Z,10.74
2022-12-25T13:47:38.299Z,11.01
2022-12-25T13:50:13.898Z,11.35
2022-12-25T13:52:40.485Z,11.43
2022-12-25T13:55:13.057Z,11.48
2022-12-25T13:57:47.591Z,11.45
2022-12-25T14:00:23.721Z,11.48
2022-12-25T14:02:51.443Z,11.17
2022-12-25T14:05:24.292Z,11.41
2022-12-25T14:07:53.116Z,10.99
2022-12-25T14:10:22.043Z,10.96
2022-12-25T14:12:55.080Z,11.14
2022-12-25T14:15:23.561Z,9.15
2022-12-25T14:17:52.024Z,11.06
2022-12-25T14:20:27.535Z,11.07
2022-12-25T14:22:56.854Z,11.01
2022-12-25T14:25:32.160Z,10.81
2022-12-25T14:28:09.415Z,11.02
2022-12-25T14:30:36.698Z,10.96
2022-12-25T14:33:03.424Z,10.62
2022-12-25T14:35:30.396Z,10.04
2022-12-25T14:38:00.331Z,9.72
2022-12-25T14:40:32.057Z,10.78
2022-12-25T14:42:59.857Z,10.70
2022-12-25T14:45:34.249Z,10.69
2022-12-25T14:48:19.774Z,10.53
2022-12-25T14:51:08.928Z,9.86
2022-12-25T14:53:50.999Z,10.37
2022-12-25T14:56:20.311Z,9.88
2022-12-25T14:58:52.603Z,10.34
2022-12-25T15:01:26.592Z,10.24
2022-12-25T15:04:04.868Z,10.09
2022-12-25T15:06:33.062Z,10.05
2022-12-25T15:09:02.855Z,8.93
2022-12-25T15:11:29.937Z,9.90
2022-12-25T15:13:56.497Z,9.30
2022-12-25T15:16:30.919Z,9.86
2022-12-25T15:19:00.363Z,9.78
2022-12-25T15:21:33.954Z,9.20
2022-12-25T15:24:00.846Z,8.90
2022-12-25T15:26:29.770Z,8.54
2022-12-25T15:29:59.705Z,9.60
2022-12-25T15:32:17.564Z,9.22
2022-12-25T15:34:46.194Z,8.63
2022-12-25T15:37:14.117Z,8.87
2022-12-25T15:39:40.758Z,9.49
2022-12-25T15:42:16.841Z,9.47
2022-12-25T15:44:44.605Z,9.47
2022-12-25T15:47:12.410Z,9.29
2022-12-25T15:49:39.370Z,9.39
2022-12-25T15:52:10.045Z,9.38
2022-12-25T15:54:39.689Z,8.96
2022-12-25T15:57:13.738Z,8.10
2022-12-25T15:59:40.313Z,8.50
2022-12-25T16:02:16.771Z,9.27
2022-12-25T16:04:43.860Z,9.25
2022-12-25T16:07:20.425Z,9.26
2022-12-25T16:09:47.089Z,8.87
2022-12-25T16:12:13.709Z,9.22
2022-12-25T16:14:40.721Z,9.20
2022-12-25T16:17:07.668Z,9.17
2022-12-25T16:19:34.229Z,8.98
2022-12-25T16:22:04.320Z,8.56
2022-12-25T16:24:30.967Z,9.08
2022-12-25T16:26:57.680Z,8.93
2022-12-25T16:29:24.337Z,8.97
2022-12-25T16:31:50.908Z,7.90
2022-12-25T16:34:17.598Z,8.95
2022-12-25T16:36:44.277Z,8.10
2022-12-25T16:39:10.861Z,8.20
2022-12-25T16:41:37.537Z,8.39
2022-12-25T16:44:09.614Z,8.43
2022-12-25T16:46:37.280Z,7.76
2022-12-25T16:49:04.044Z,8.09
2022-12-25T16:51:46.507Z,8.75
2022-12-25T16:54:16.094Z,8.72
2022-12-25T16:56:42.744Z,7.79
2022-12-25T16:59:09.356Z,8.31
2022-12-25T17:01:36.099Z,8.63
2022-12-25T17:04:03.345Z,8.60
2022-12-25T17:06:30.105Z,7.49
2022-12-25T17:08:59.035Z,8.23
2022-12-25T17:11:29.683Z,8.43
2022-12-25T17:13:58.611Z,8.24
2022-12-25T17:16:27.800Z,8.33
2022-12-25T17:19:01.257Z,8.29
2022-12-25T17:21:28.760Z,8.24
2022-12-25T17:24:01.685Z,8.16
2022-12-25T17:26:30.472Z,8.01
2022-12-25T17:28:57.252Z,8.12
2022-12-25T17:31:24.707Z,8.11
2022-12-25T17:33:51.531Z,8.02
2022-12-25T17:36:22.622Z,7.34
2022-12-25T17:38:49.896Z,7.57
2022-12-25T17:41:18.478Z,7.64
2022-12-25T17:43:46.391Z,8.23
2022-12-25T17:46:24.986Z,8.28
2022-12-25T17:48:52.587Z,7.82
2022-12-25T17:51:22.362Z,7.98
2022-12-25T17:53:51.618Z,8.36
2022-12-25T17:56:19.747Z,8.37
2022-12-25T17:58:54.854Z,7.10
2022-12-25T18:01:23.458Z,8.35
2022-12-25T18:03:51.311Z,7.31
2022-12-25T18:06:22.113Z,8.29
2022-12-25T18:08:52.887Z,7.80
2022-12-25T18:11:23.236Z,8.24
2022-12-25T18:13:52.172Z,8.22
2022-12-25T18:16:22.010Z,8.18
2022-12-25T18:18:52.154Z,7.81
2022-12-25T18:21:20.222Z,8.10
2022-12-25T18:23:46.882Z,7.74
2022-12-25T18:26:13.872Z,8.10
2022-12-25T18:28:42.713Z,8.10
2022-12-25T18:31:22.446Z,7.83
2022-12-25T18:33:50.383Z,8.08
2022-12-25T18:36:22.781Z,8.08
2022-12-25T18:38:51.070Z,8.07
2022-12-25T18:41:18.945Z,8.10
2022-12-25T18:43:53.619Z,8.01
2022-12-25T18:46:26.475Z,8.01
2022-12-25T18:48:56.634Z,8.13
2022-12-25T18:51:23.459Z,8.13
2022-12-25T18:53:51.005Z,8.12
2022-12-25T18:56:19.770Z,8.10
2022-12-25T18:58:47.169Z,7.76
2022-12-25T19:01:20.687Z,7.56
2022-12-25T19:03:48.994Z,7.17
2022-12-25T19:06:27.193Z,6.72
2022-12-25T19:08:55.773Z,7.36
2022-12-25T19:11:22.844Z,7.23
2022-12-25T19:13:49.573Z,7.08
2022-12-25T19:16:16.853Z,8.19
2022-12-25T19:18:45.130Z,7.31
2022-12-25T19:21:11.739Z,8.17
2022-12-25T19:23:38.993Z,8.10
2022-12-25T19:26:07.032Z,6.21
2022-12-25T19:28:34.449Z,8.11
2022-12-25T19:31:02.884Z,8.13
2022-12-25T19:33:31.679Z,8.14
2022-12-25T19:36:07.200Z,8.11
2022-12-25T19:38:34.227Z,8.12
2022-12-25T19:41:09.365Z,8.10
2022-12-25T19:43:38.633Z,8.12
2022-12-25T19:46:06.641Z,6.66
2022-12-25T19:48:33.979Z,8.07
2022-12-25T19:51:00.999Z,8.09
2022-12-25T19:53:31.469Z,8.05
2022-12-25T19:56:02.081Z,7.21
2022-12-25T19:58:29.707Z,8.00
2022-12-25T20:01:00.608Z,7.98
2022-12-25T20:03:27.691Z,7.97
2022-12-25T20:05:54.579Z,7.64
2022-12-25T20:08:21.395Z,7.93
2022-12-25T20:10:49.168Z,6.77
2022-12-25T20:13:16.504Z,7.94
2022-12-25T20:15:43.192Z,6.77
2022-12-25T20:18:09.778Z,7.84
2022-12-25T20:20:36.399Z,7.94
2022-12-25T20:23:03.714Z,7.93
2022-12-25T20:25:30.396Z,7.91
2022-12-25T20:27:56.984Z,7.90
2022-12-25T20:30:23.705Z,7.50
2022-12-25T20:32:50.875Z,7.89
2022-12-25T20:35:17.694Z,7.42
2022-12-25T20:37:44.695Z,7.71
2022-12-25T20:40:12.432Z,7.81
2022-12-25T20:42:39.138Z,7.68
2022-12-25T20:45:07.453Z,7.62
2022-12-25T20:47:34.918Z,7.73
2022-12-25T20:50:01.608Z,6.54
2022-12-25T20:52:28.374Z,7.54
2022-12-25T20:54:54.981Z,6.91
2022-12-25T20:57:21.534Z,6.48
2022-12-25T20:59:48.131Z,7.54
2022-12-25T21:02:34.280Z,7.50
2022-12-25T21:05:01.291Z,6.66
2022-12-25T21:07:27.853Z,7.45
2022-12-25T21:09:54.445Z,7.39
2022-12-25T21:12:20.995Z,6.99
2022-12-25T21:14:47.578Z,7.34
2022-12-25T21:17:14.132Z,7.17
2022-12-25T21:19:40.802Z,6.45
2022-12-25T21:22:07.402Z,6.50
2022-12-25T21:24:33.977Z,6.70
2022-12-25T21:27:00.569Z,6.82
2022-12-25T21:29:27.180Z,7.24
2022-12-25T21:32:12.972Z,7.22
2022-12-25T21:34:39.945Z,7.17
2022-12-25T21:37:06.496Z,7.15
2022-12-25T21:39:33.158Z,7.12
2022-12-25T21:41:59.731Z,5.81
2022-12-25T21:44:26.387Z,7.08
2022-12-25T21:46:53.230Z,6.70
2022-12-25T21:49:44.126Z,6.25
2022-12-25T21:52:10.908Z,6.97
2022-12-25T21:54:37.763Z,6.47
2022-12-25T21:57:05.022Z,6.88
2022-12-25T21:59:31.692Z,6.72
2022-12-25T22:01:59.482Z,6.82
2022-12-25T22:04:26.755Z,6.43
2022-12-25T22:07:12.124Z,5.80
2022-12-25T22:09:38.819Z,6.05
2022-12-25T22:12:27.382Z,6.66
2022-12-25T22:15:02.706Z,6.64
2022-12-25T22:17:50.126Z,6.60
2022-12-25T22:20:23.867Z,6.50
2022-12-25T22:22:51.117Z,6.52
2022-12-25T22:25:18.376Z,6.49
2022-12-25T22:27:46.726Z,6.48
2022-12-25T22:30:18.999Z,6.10
2022-12-25T22:32:46.333Z,6.46
2022-12-25T22:35:14.160Z,5.45
2022-12-25T22:37:42.228Z,6.46
2022-12-25T22:40:10.808Z,5.72
2022-12-25T22:42:37.469Z,5.94
2022-12-25T22:45:04.893Z,6.42
2022-12-25T22:47:31.575Z,6.44
2022-12-25T22:49:58.185Z,6.48
2022-12-25T22:52:24.841Z,6.41
2022-12-25T22:54:51.505Z,6.55
2022-12-25T22:57:18.159Z,6.58
2022-12-25T22:59:45.878Z,5.77
2022-12-25T23:02:12.607Z,5.73
2022-12-25T23:04:39.245Z,6.64
2022-12-25T23:07:05.862Z,6.51
2022-12-25T23:09:32.391Z,6.62
2022-12-25T23:11:59.458Z,6.60
2022-12-25T23:14:39.195Z,5.85
2022-12-25T23:17:29.261Z,6.59
2022-12-25T23:20:16.497Z,6.57
2022-12-25T23:23:01.917Z,6.56
2022-12-25T23:25:47.682Z,6.08
2022-12-25T23:28:14.436Z,6.48
2022-12-25T23:30:41.001Z,6.46
2022-12-25T23:33:07.609Z,6.43
2022-12-25T23:35:34.177Z,6.40
2022-12-25T23:38:00.999Z,5.50
2022-12-25T23:40:27.648Z,6.37
2022-12-25T23:42:54.264Z,5.66
2022-12-25T23:45:20.992Z,5.76
2022-12-25T23:47:47.553Z,6.00
2022-12-25T23:50:15.161Z,6.24
2022-12-25T23:52:42.038Z,5.94
2022-12-25T23:55:08.862Z,6.22
2022-12-25T23:57:35.390Z,5.61
